createdAt,value
2023-08-15T00:00:28.247Z,8.45
2023-08-15T00:01:01.018Z,6.53
2023-08-15T00:01:32.469Z,8.40
2023-08-15T00:02:04.026Z,8.80
2023-08-15T00:02:35.445Z,8.70
2023-08-15T00:03:07.040Z,9.20
2023-08-15T00:03:38.544Z,10.80
2023-08-15T00:04:09.933Z,6.45
2023-08-15T00:04:41.356Z,6.88
2023-08-15T00:05:12.757Z,7.90
2023-08-15T00:05:44.191Z,10.73
2023-08-15T00:06:15.602Z,7.82
2023-08-15T00:06:46.984Z,8.30
2023-08-15T00:07:18.682Z,6.95
2023-08-15T00:07:50.363Z,7.05
2023-08-15T00:08:21.787Z,8.50
2023-08-15T00:08:53.188Z,7.68
2023-08-15T00:09:24.554Z,10.88
2023-08-15T00:09:55.936Z,10.27
2023-08-15T00:10:27.330Z,8.55
2023-08-15T00:10:58.771Z,7.25
2023-08-15T00:11:30.225Z,9.50
2023-08-15T00:12:01.790Z,9.95
2023-08-15T00:12:33.181Z,8.25
2023-08-15T00:13:04.665Z,9.00
2023-08-15T00:13:36.052Z,8.03
2023-08-15T00:14:07.499Z,6.85
2023-08-15T00:14:38.980Z,9.85
2023-08-15T00:15:10.601Z,10.02
2023-08-15T00:15:42.085Z,8.85
2023-08-15T00:16:13.598Z,7.78
2023-08-15T00:16:45.121Z,8.73
2023-08-15T00:17:16.600Z,9.13
2023-08-15T00:17:48.065Z,7.90
2023-08-15T00:18:19.510Z,7.50
2023-08-15T00:18:50.897Z,7.45
2023-08-15T00:19:22.346Z,8.98
2023-08-15T00:19:53.760Z,8.98
2023-08-15T00:20:25.159Z,9.50
2023-08-15T00:20:56.572Z,9.73
2023-08-15T00:21:27.987Z,9.02
2023-08-15T00:21:59.379Z,8.65
2023-08-15T00:22:30.811Z,9.07
2023-08-15T00:23:02.265Z,6.82
2023-08-15T00:23:33.776Z,8.15
2023-08-15T00:24:05.441Z,7.85
2023-08-15T00:24:36.906Z,6.45
2023-08-15T00:25:08.416Z,7.70
2023-08-15T00:25:39.837Z,8.80
2023-08-15T00:26:11.262Z,6.60
2023-08-15T00:26:42.677Z,7.47
2023-08-15T00:27:14.115Z,11.35
2023-08-15T00:27:45.479Z,7.90
2023-08-15T00:28:16.896Z,8.18
2023-08-15T00:28:48.319Z,8.20
2023-08-15T00:29:19.710Z,7.53
2023-08-15T00:29:51.086Z,7.03
2023-08-15T00:30:22.516Z,7.38
2023-08-15T00:30:54.047Z,7.03
2023-08-15T00:31:25.975Z,10.18
2023-08-15T00:31:57.456Z,8.10
2023-08-15T00:32:28.937Z,8.60
2023-08-15T00:33:00.658Z,7.32
2023-08-15T00:33:32.195Z,8.27
2023-08-15T00:34:03.716Z,8.10
2023-08-15T00:34:35.228Z,8.33
2023-08-15T00:35:07.024Z,7.43
2023-08-15T00:35:38.485Z,9.20
2023-08-15T00:36:10.084Z,8.60
2023-08-15T00:36:41.451Z,6.90
2023-08-15T00:37:13.027Z,8.73
2023-08-15T00:37:44.443Z,6.87
2023-08-15T00:38:15.868Z,8.75
2023-08-15T00:38:47.260Z,8.65
2023-08-15T00:39:18.641Z,7.28
2023-08-15T00:39:50.101Z,6.88
2023-08-15T00:40:21.518Z,8.27
2023-08-15T00:40:52.934Z,6.15
2023-08-15T00:41:24.312Z,6.55
2023-08-15T00:41:55.748Z,8.50
2023-08-15T00:42:27.320Z,7.30
2023-08-15T00:42:58.771Z,8.52
2023-08-15T00:43:30.151Z,7.15
2023-08-15T00:44:01.538Z,7.28
2023-08-15T00:44:32.977Z,7.85
2023-08-15T00:45:04.673Z,8.23
2023-08-15T00:45:38.429Z,8.10
2023-08-15T00:46:10.139Z,6.03
2023-08-15T00:46:41.632Z,7.05
2023-08-15T00:47:14.371Z,6.25
2023-08-15T00:47:45.849Z,10.63
2023-08-15T00:48:17.691Z,8.82
2023-08-15T00:48:49.541Z,6.97
2023-08-15T00:49:20.958Z,7.10
2023-08-15T00:49:53.205Z,8.57
2023-08-15T00:50:24.946Z,7.20
2023-08-15T00:50:57.130Z,8.20
2023-08-15T00:51:28.606Z,8.40
2023-08-15T00:52:00.073Z,9.40
2023-08-15T00:52:31.508Z,7.38
2023-08-15T00:53:03.982Z,9.75
2023-08-15T00:53:35.922Z,9.60
2023-08-15T00:54:07.711Z,8.98
2023-08-15T00:54:39.732Z,8.20
2023-08-15T00:55:11.292Z,7.53
2023-08-15T00:55:42.758Z,6.90
2023-08-15T00:56:15.276Z,5.35
2023-08-15T00:56:46.763Z,6.80
2023-08-15T00:57:18.694Z,7.82
2023-08-15T00:57:50.359Z,6.68
2023-08-15T00:58:21.842Z,6.55
2023-08-15T00:58:53.452Z,8.30
2023-08-15T00:59:24.944Z,6.93
2023-08-15T00:59:56.572Z,9.68
2023-08-15T01:00:28.381Z,9.50
2023-08-15T01:01:00.153Z,6.25
2023-08-15T01:01:32.352Z,7.28
2023-08-15T01:02:04.251Z,8.50
2023-08-15T01:02:36.021Z,7.35
2023-08-15T01:03:07.705Z,9.63
2023-08-15T01:03:39.464Z,6.45
2023-08-15T01:04:11.339Z,7.95
2023-08-15T01:04:42.840Z,6.35
2023-08-15T01:05:15.768Z,8.68
2023-08-15T01:05:48.077Z,8.93
2023-08-15T01:06:19.560Z,6.30
2023-08-15T01:06:51.241Z,7.07
2023-08-15T01:07:22.789Z,7.22
2023-08-15T01:07:54.491Z,6.50
2023-08-15T01:08:25.903Z,7.57
2023-08-15T01:08:57.701Z,7.68
2023-08-15T01:09:29.121Z,8.75
2023-08-15T01:10:00.588Z,8.27
2023-08-15T01:10:32.068Z,6.03
2023-08-15T01:11:03.571Z,6.87
2023-08-15T01:11:40.021Z,8.00
2023-08-15T01:12:17.330Z,7.68
2023-08-15T01:12:59.395Z,8.75
2023-08-15T01:13:30.802Z,9.98
2023-08-15T01:14:05.513Z,6.32
2023-08-15T01:14:46.955Z,7.03
2023-08-15T01:15:21.486Z,8.98
2023-08-15T01:15:53.275Z,6.65
2023-08-15T01:16:25.883Z,6.72
2023-08-15T01:16:57.995Z,7.00
2023-08-15T01:17:33.727Z,5.88
2023-08-15T01:18:14.037Z,8.07
2023-08-15T01:18:46.812Z,8.63
2023-08-15T01:19:39.392Z,7.13
2023-08-15T01:20:13.749Z,9.10
2023-08-15T01:20:46.368Z,7.13
2023-08-15T01:21:21.825Z,7.43
2023-08-15T01:21:55.275Z,7.50
2023-08-15T01:22:28.994Z,9.30
2023-08-15T01:23:05.504Z,9.25
2023-08-15T01:23:41.033Z,7.45
2023-08-15T01:24:12.469Z,7.75
2023-08-15T01:24:44.868Z,6.78
2023-08-15T01:25:16.353Z,6.60
2023-08-15T01:25:49.601Z,7.63
2023-08-15T01:26:21.082Z,7.05
2023-08-15T01:26:52.532Z,9.07
2023-08-15T01:27:23.928Z,8.98
2023-08-15T01:27:55.333Z,8.27
2023-08-15T01:28:26.726Z,7.90
2023-08-15T01:28:58.142Z,8.30
2023-08-15T01:29:29.588Z,7.57
2023-08-15T01:30:01.028Z,6.97
2023-08-15T01:30:32.475Z,9.02
2023-08-15T01:31:06.600Z,8.40
2023-08-15T01:31:44.319Z,9.18
2023-08-15T01:32:20.145Z,9.27
2023-08-15T01:32:59.827Z,11.38
2023-08-15T01:33:35.380Z,7.65
2023-08-15T01:34:21.983Z,7.60
2023-08-15T01:34:59.965Z,8.40
2023-08-15T01:35:34.115Z,10.77
2023-08-15T01:36:09.456Z,8.13
2023-08-15T01:36:44.132Z,9.40
2023-08-15T01:37:26.979Z,7.70
2023-08-15T01:38:18.635Z,8.98
2023-08-15T01:38:52.827Z,8.27
2023-08-15T01:39:30.799Z,8.95
2023-08-15T01:40:03.348Z,9.02
2023-08-15T01:40:36.247Z,6.65
2023-08-15T01:41:09.473Z,7.32
2023-08-15T01:41:42.129Z,9.07
2023-08-15T01:42:13.954Z,8.38
2023-08-15T01:42:45.806Z,13.95
2023-08-15T01:43:18.431Z,6.93
2023-08-15T01:43:50.091Z,8.88
2023-08-15T01:44:21.845Z,7.40
2023-08-15T01:44:55.010Z,6.60
2023-08-15T01:45:26.683Z,9.80
2023-08-15T01:45:58.521Z,9.60
2023-08-15T01:46:30.090Z,8.73
2023-08-15T01:47:01.806Z,6.75
2023-08-15T01:47:33.426Z,8.63
2023-08-15T01:48:05.142Z,7.75
2023-08-15T01:48:43.064Z,7.55
2023-08-15T01:49:14.759Z,6.63
2023-08-15T01:49:46.238Z,7.75
2023-08-15T01:50:17.623Z,7.45
2023-08-15T01:50:49.059Z,8.98
2023-08-15T01:51:20.491Z,7.18
2023-08-15T01:51:52.130Z,10.05
2023-08-15T01:52:23.576Z,6.90
2023-08-15T01:52:55.038Z,7.15
2023-08-15T01:53:26.424Z,7.82
2023-08-15T01:53:57.941Z,8.38
2023-08-15T01:54:29.612Z,6.55
2023-08-15T01:55:01.029Z,7.30
2023-08-15T01:55:32.404Z,7.75
2023-08-15T01:56:03.876Z,9.48
2023-08-15T01:56:35.338Z,9.65
2023-08-15T01:57:06.776Z,7.38
2023-08-15T01:57:38.196Z,7.72
2023-08-15T01:58:09.596Z,8.65
2023-08-15T01:58:41.084Z,7.15
2023-08-15T01:59:12.506Z,10.07
2023-08-15T01:59:44.063Z,6.60
2023-08-15T02:00:15.561Z,10.35
2023-08-15T02:00:46.929Z,7.30
2023-08-15T02:01:18.349Z,8.07
2023-08-15T02:01:49.872Z,7.78
2023-08-15T02:02:21.300Z,7.07
2023-08-15T02:02:52.789Z,6.45
2023-08-15T02:03:24.218Z,6.90
2023-08-15T02:03:55.686Z,7.85
2023-08-15T02:04:27.061Z,6.85
2023-08-15T02:04:58.441Z,7.82
2023-08-15T02:05:29.925Z,9.70
2023-08-15T02:06:01.333Z,10.30
2023-08-15T02:06:32.732Z,6.88
2023-08-15T02:07:04.344Z,9.88
2023-08-15T02:07:35.725Z,10.88
2023-08-15T02:08:07.181Z,7.45
2023-08-15T02:08:38.559Z,7.68
2023-08-15T02:09:10.082Z,8.13
2023-08-15T02:09:41.446Z,9.87
2023-08-15T02:10:12.874Z,7.28
2023-08-15T02:10:44.289Z,7.15
2023-08-15T02:11:15.786Z,8.23
2023-08-15T02:11:47.181Z,9.48
2023-08-15T02:12:18.936Z,9.13
2023-08-15T02:12:50.340Z,7.95
2023-08-15T02:13:21.726Z,7.45
2023-08-15T02:13:53.932Z,7.30
2023-08-15T02:14:25.323Z,9.03
2023-08-15T02:14:56.782Z,9.73
2023-08-15T02:15:28.210Z,6.32
2023-08-15T02:15:59.733Z,8.25
2023-08-15T02:16:31.153Z,7.57
2023-08-15T02:17:02.553Z,6.97
2023-08-15T02:17:34.099Z,6.55
2023-08-15T02:18:05.768Z,7.70
2023-08-15T02:18:38.531Z,7.60
2023-08-15T02:19:11.339Z,9.18
2023-08-15T02:19:42.779Z,7.18
2023-08-15T02:20:14.194Z,8.30
2023-08-15T02:20:45.814Z,9.10
2023-08-15T02:21:17.208Z,11.05
2023-08-15T02:21:48.625Z,9.40
2023-08-15T02:22:20.033Z,8.27
2023-08-15T02:22:51.476Z,7.72
2023-08-15T02:23:23.011Z,8.05
2023-08-15T02:23:54.408Z,8.18
2023-08-15T02:24:25.828Z,8.13
2023-08-15T02:24:57.304Z,8.13
2023-08-15T02:25:28.702Z,8.88
2023-08-15T02:26:00.121Z,8.95
2023-08-15T02:26:31.519Z,8.57
2023-08-15T02:27:02.941Z,8.45
2023-08-15T02:27:34.383Z,9.98
2023-08-15T02:28:06.068Z,10.05
2023-08-15T02:28:37.468Z,9.75
2023-08-15T02:29:08.952Z,9.45
2023-08-15T02:29:40.343Z,7.65
2023-08-15T02:30:12.025Z,9.02
2023-08-15T02:30:43.516Z,8.02
2023-08-15T02:31:14.946Z,7.90
2023-08-15T02:31:47.752Z,7.85
2023-08-15T02:32:19.276Z,9.77
2023-08-15T02:32:50.701Z,9.05
2023-08-15T02:33:22.160Z,10.40
2023-08-15T02:33:53.554Z,8.63
2023-08-15T02:34:25.008Z,10.07
2023-08-15T02:34:56.465Z,9.90
2023-08-15T02:35:27.845Z,7.53
2023-08-15T02:36:04.217Z,8.13
2023-08-15T02:36:35.620Z,12.05
2023-08-15T02:37:07.039Z,8.38
2023-08-15T02:37:38.478Z,9.85
2023-08-15T02:38:10.023Z,9.50
2023-08-15T02:38:41.482Z,8.32
2023-08-15T02:39:12.883Z,7.75
2023-08-15T02:39:44.300Z,7.70
2023-08-15T02:40:15.715Z,7.43
2023-08-15T02:40:47.114Z,9.43
2023-08-15T02:41:18.506Z,9.25
2023-08-15T02:41:49.906Z,7.95
2023-08-15T02:42:21.358Z,9.20
2023-08-15T02:42:52.750Z,9.55
2023-08-15T02:43:24.168Z,7.63
2023-08-15T02:43:55.620Z,8.07
2023-08-15T02:44:27.076Z,7.17
2023-08-15T02:44:58.512Z,8.10
2023-08-15T02:45:29.892Z,8.90
2023-08-15T02:46:01.422Z,7.63
2023-08-15T02:46:32.886Z,10.38
2023-08-15T02:47:04.470Z,7.53
2023-08-15T02:47:35.876Z,9.07
2023-08-15T02:48:07.445Z,9.07
2023-08-15T02:48:38.903Z,9.02
2023-08-15T02:49:10.327Z,10.25
2023-08-15T02:49:41.742Z,7.75
2023-08-15T02:50:13.359Z,6.78
2023-08-15T02:50:44.841Z,6.25
2023-08-15T02:51:16.268Z,8.55
2023-08-15T02:51:47.632Z,8.48
2023-08-15T02:52:19.022Z,7.45
2023-08-15T02:52:50.455Z,7.95
2023-08-15T02:53:21.877Z,7.22
2023-08-15T02:53:53.248Z,7.25
2023-08-15T02:54:24.660Z,9.57
2023-08-15T02:54:56.068Z,9.95
2023-08-15T02:55:27.498Z,9.23
2023-08-15T02:55:58.859Z,8.45
2023-08-15T02:56:30.255Z,9.93
2023-08-15T02:57:01.643Z,8.88
2023-08-15T02:57:33.123Z,6.13
2023-08-15T02:58:04.639Z,6.85
2023-08-15T02:58:36.024Z,8.88
2023-08-15T02:59:07.431Z,7.35
2023-08-15T02:59:38.865Z,6.25
2023-08-15T03:00:10.589Z,6.87
2023-08-15T03:00:42.043Z,8.38
2023-08-15T03:01:13.538Z,8.23
2023-08-15T03:01:45.044Z,8.00
2023-08-15T03:02:16.634Z,8.15
2023-08-15T03:02:48.145Z,7.45
2023-08-15T03:03:19.595Z,8.43
2023-08-15T03:03:51.035Z,8.82
2023-08-15T03:04:22.479Z,8.32
2023-08-15T03:04:53.896Z,6.20
2023-08-15T03:05:25.296Z,7.85
2023-08-15T03:06:03.403Z,8.32
2023-08-15T03:06:34.838Z,8.37
2023-08-15T03:07:06.240Z,6.43
2023-08-15T03:07:37.660Z,9.70
2023-08-15T03:08:09.095Z,8.82
2023-08-15T03:08:40.501Z,9.50
2023-08-15T03:09:11.888Z,6.95
2023-08-15T03:09:43.293Z,11.18
2023-08-15T03:10:14.803Z,7.80
2023-08-15T03:10:46.191Z,9.35
2023-08-15T03:11:17.601Z,10.00
2023-08-15T03:11:49.042Z,8.07
2023-08-15T03:12:20.450Z,7.18
2023-08-15T03:12:51.856Z,8.43
2023-08-15T03:13:23.276Z,8.68
2023-08-15T03:13:54.667Z,8.00
2023-08-15T03:14:28.335Z,9.20
2023-08-15T03:15:00.525Z,8.20
2023-08-15T03:15:31.984Z,9.50
2023-08-15T03:16:03.462Z,9.40
2023-08-15T03:16:34.913Z,9.38
2023-08-15T03:17:06.398Z,9.23
2023-08-15T03:17:37.875Z,7.93
2023-08-15T03:18:09.354Z,10.38
2023-08-15T03:18:40.799Z,8.35
2023-08-15T03:19:12.911Z,9.30
2023-08-15T03:19:44.286Z,9.50
2023-08-15T03:20:15.773Z,8.15
2023-08-15T03:21:03.995Z,9.70
2023-08-15T03:21:35.397Z,11.85
2023-08-15T03:22:09.775Z,8.88
2023-08-15T03:22:42.508Z,7.57
2023-08-15T03:23:13.901Z,8.48
2023-08-15T03:23:45.285Z,7.53
2023-08-15T03:24:16.904Z,11.52
2023-08-15T03:24:48.311Z,9.88
2023-08-15T03:25:19.726Z,8.68
2023-08-15T03:26:03.934Z,7.78
2023-08-15T03:26:35.363Z,8.02
2023-08-15T03:27:06.784Z,8.50
2023-08-15T03:27:38.202Z,8.23
2023-08-15T03:28:09.567Z,9.80
2023-08-15T03:28:41.041Z,9.63
2023-08-15T03:29:12.503Z,7.90
2023-08-15T03:29:44.004Z,8.18
2023-08-15T03:30:15.501Z,8.05
2023-08-15T03:30:46.972Z,7.63
2023-08-15T03:31:18.477Z,8.60
2023-08-15T03:31:49.946Z,9.45
2023-08-15T03:32:21.404Z,10.13
2023-08-15T03:32:52.836Z,7.60
2023-08-15T03:33:24.797Z,9.27
2023-08-15T03:33:56.196Z,9.18
2023-08-15T03:34:27.664Z,8.68
2023-08-15T03:34:59.038Z,9.38
2023-08-15T03:35:30.404Z,8.68
2023-08-15T03:36:01.924Z,9.23
2023-08-15T03:36:33.333Z,11.43
2023-08-15T03:37:04.770Z,9.63
2023-08-15T03:37:36.219Z,9.40
2023-08-15T03:38:07.694Z,6.95
2023-08-15T03:38:39.061Z,8.32
2023-08-15T03:39:10.446Z,10.40
2023-08-15T03:39:41.851Z,11.27
2023-08-15T03:40:13.276Z,11.52
2023-08-15T03:40:45.371Z,11.07
2023-08-15T03:41:16.755Z,7.53
2023-08-15T03:41:48.199Z,8.90
2023-08-15T03:42:19.795Z,9.98
2023-08-15T03:42:51.244Z,9.80
2023-08-15T03:43:22.758Z,8.73
2023-08-15T03:43:54.138Z,8.32
2023-08-15T03:44:25.514Z,8.82
2023-08-15T03:44:56.909Z,10.55
2023-08-15T03:45:29.727Z,10.52
2023-08-15T03:46:01.665Z,10.55
2023-08-15T03:46:33.192Z,8.32
2023-08-15T03:47:04.727Z,7.97
2023-08-15T03:47:36.171Z,7.57
2023-08-15T03:48:08.534Z,8.18
2023-08-15T03:48:39.948Z,8.77
2023-08-15T03:49:11.351Z,10.73
2023-08-15T03:49:42.779Z,8.77
2023-08-15T03:50:14.153Z,10.77
2023-08-15T03:50:45.543Z,10.52
2023-08-15T03:51:32.356Z,11.07
2023-08-15T03:52:08.297Z,10.50
2023-08-15T03:52:39.719Z,9.45
2023-08-15T03:53:11.215Z,10.85
2023-08-15T03:53:42.688Z,9.23
2023-08-15T03:54:16.348Z,11.48
2023-08-15T03:54:47.773Z,10.10
2023-08-15T03:55:19.235Z,9.40
2023-08-15T03:55:50.771Z,9.48
2023-08-15T03:56:22.199Z,10.00
2023-08-15T03:56:53.596Z,7.95
2023-08-15T03:57:25.047Z,9.90
2023-08-15T03:57:56.533Z,9.50
2023-08-15T03:58:28.054Z,13.57
2023-08-15T03:58:59.517Z,10.63
2023-08-15T03:59:30.898Z,10.02
2023-08-15T04:00:02.295Z,8.45
2023-08-15T04:00:33.762Z,9.38
2023-08-15T04:01:07.210Z,9.10
2023-08-15T04:01:38.634Z,11.30
2023-08-15T04:02:10.133Z,8.35
2023-08-15T04:02:41.699Z,9.95
2023-08-15T04:03:13.149Z,8.30
2023-08-15T04:03:46.813Z,10.63
2023-08-15T04:04:18.397Z,12.30
2023-08-15T04:04:49.828Z,11.27
2023-08-15T04:05:21.302Z,8.50
2023-08-15T04:05:52.706Z,8.38
2023-08-15T04:06:24.084Z,13.25
2023-08-15T04:06:55.564Z,10.18
2023-08-15T04:07:29.023Z,10.65
2023-08-15T04:08:00.533Z,10.10
2023-08-15T04:08:31.943Z,11.10
2023-08-15T04:09:03.357Z,11.27
2023-08-15T04:09:34.750Z,10.95
2023-08-15T04:10:06.467Z,11.07
2023-08-15T04:10:38.175Z,12.13
2023-08-15T04:11:09.585Z,13.65
2023-08-15T04:11:40.966Z,8.98
2023-08-15T04:12:12.363Z,10.50
2023-08-15T04:12:46.781Z,10.30
2023-08-15T04:13:18.241Z,12.85
2023-08-15T04:13:49.691Z,8.60
2023-08-15T04:14:21.056Z,10.10
2023-08-15T04:14:52.482Z,10.67
2023-08-15T04:15:23.855Z,6.97
2023-08-15T04:15:55.294Z,7.65
2023-08-15T04:16:26.815Z,8.82
2023-08-15T04:16:58.252Z,8.57
2023-08-15T04:17:29.624Z,10.85
2023-08-15T04:18:01.060Z,9.27
2023-08-15T04:18:32.712Z,11.85
2023-08-15T04:19:04.270Z,9.87
2023-08-15T04:19:35.668Z,9.57
2023-08-15T04:20:07.462Z,7.50
2023-08-15T04:20:39.698Z,8.52
2023-08-15T04:21:11.618Z,7.55
2023-08-15T04:21:43.012Z,8.20
2023-08-15T04:22:14.359Z,9.32
2023-08-15T04:22:45.781Z,12.70
2023-08-15T04:23:17.193Z,8.93
2023-08-15T04:23:48.961Z,8.73
2023-08-15T04:24:20.376Z,10.93
2023-08-15T04:24:51.825Z,8.35
2023-08-15T04:25:23.249Z,9.80
2023-08-15T04:25:54.776Z,10.05
2023-08-15T04:26:26.379Z,12.15
2023-08-15T04:26:57.768Z,11.57
2023-08-15T04:27:29.155Z,12.07
2023-08-15T04:28:00.692Z,10.93
2023-08-15T04:28:32.115Z,9.93
2023-08-15T04:29:03.548Z,12.25
2023-08-15T04:29:34.936Z,12.50
2023-08-15T04:30:06.647Z,11.05
2023-08-15T04:30:38.157Z,12.48
2023-08-15T04:31:09.558Z,10.45
2023-08-15T04:31:40.992Z,10.07
2023-08-15T04:32:12.403Z,8.57
2023-08-15T04:32:43.807Z,9.23
2023-08-15T04:33:15.232Z,13.00
2023-08-15T04:33:46.653Z,11.38
2023-08-15T04:34:18.073Z,10.32
2023-08-15T04:34:50.090Z,9.98
2023-08-15T04:35:21.667Z,12.35
2023-08-15T04:35:53.042Z,11.65
2023-08-15T04:36:24.420Z,9.45
2023-08-15T04:36:56.027Z,9.63
2023-08-15T04:37:27.446Z,14.52
2023-08-15T04:37:58.822Z,8.23
2023-08-15T04:38:30.221Z,10.88
2023-08-15T04:39:01.979Z,10.88
2023-08-15T04:39:33.464Z,11.63
2023-08-15T04:40:05.186Z,15.85
2023-08-15T04:40:37.443Z,14.60
2023-08-15T04:41:08.886Z,10.98
2023-08-15T04:41:40.247Z,10.75
2023-08-15T04:42:11.635Z,11.55
2023-08-15T04:42:43.043Z,9.60
2023-08-15T04:43:14.440Z,12.13
2023-08-15T04:43:45.854Z,11.85
2023-08-15T04:44:17.245Z,9.45
2023-08-15T04:44:48.676Z,9.48
2023-08-15T04:45:20.076Z,10.73
2023-08-15T04:45:51.486Z,10.80
2023-08-15T04:46:22.963Z,15.20
2023-08-15T04:46:54.398Z,10.82
2023-08-15T04:47:25.782Z,16.98
2023-08-15T04:47:57.305Z,15.43
2023-08-15T04:48:28.720Z,10.75
2023-08-15T04:49:01.069Z,10.38
2023-08-15T04:49:32.450Z,13.40
2023-08-15T04:50:03.979Z,9.98
2023-08-15T04:50:35.405Z,10.45
2023-08-15T04:51:06.843Z,9.80
2023-08-15T04:51:38.224Z,12.05
2023-08-15T04:52:09.695Z,12.40
2023-08-15T04:52:41.086Z,13.80
2023-08-15T04:53:12.477Z,12.50
2023-08-15T04:53:43.876Z,13.95
2023-08-15T04:54:15.264Z,9.45
2023-08-15T04:54:46.746Z,13.85
2023-08-15T04:55:18.178Z,11.82
2023-08-15T04:55:49.552Z,11.15
2023-08-15T04:56:21.927Z,10.63
2023-08-15T04:56:53.405Z,11.40
2023-08-15T04:57:24.775Z,14.07
2023-08-15T04:57:56.173Z,11.90
2023-08-15T04:58:27.621Z,11.90
2023-08-15T04:58:59.005Z,14.98
2023-08-15T04:59:30.374Z,11.10
2023-08-15T05:00:01.769Z,34.20
2023-08-15T05:00:35.094Z,32.73
2023-08-15T05:01:06.990Z,49.38
2023-08-15T05:01:38.445Z,28.50
2023-08-15T05:02:09.856Z,23.05
2023-08-15T05:02:41.247Z,21.52
2023-08-15T05:03:12.679Z,19.88
2023-08-15T05:03:44.100Z,14.18
2023-08-15T05:04:15.493Z,12.90
2023-08-15T05:04:46.919Z,12.32
2023-08-15T05:05:18.342Z,15.52
2023-08-15T05:05:49.948Z,21.33
2023-08-15T05:06:21.327Z,26.27
2023-08-15T05:06:52.730Z,20.35
2023-08-15T05:07:24.120Z,13.98
2023-08-15T05:07:55.537Z,12.05
2023-08-15T05:08:26.964Z,16.40
2023-08-15T05:08:58.337Z,14.05
2023-08-15T05:09:29.961Z,16.92
2023-08-15T05:10:01.432Z,17.10
2023-08-15T05:10:33.400Z,12.57
2023-08-15T05:11:04.849Z,10.35
2023-08-15T05:11:36.240Z,12.75
2023-08-15T05:12:07.827Z,15.37
2023-08-15T05:12:39.219Z,14.85
2023-08-15T05:13:10.580Z,12.20
2023-08-15T05:13:42.041Z,10.13
2023-08-15T05:14:13.451Z,12.55
2023-08-15T05:14:44.871Z,12.93
2023-08-15T05:15:16.329Z,8.23
2023-08-15T05:15:47.768Z,12.05
2023-08-15T05:16:19.453Z,11.45
2023-08-15T05:16:50.932Z,11.48
2023-08-15T05:17:22.689Z,15.05
2023-08-15T05:17:54.236Z,10.52
2023-08-15T05:18:25.659Z,12.13
2023-08-15T05:18:57.088Z,12.65
2023-08-15T05:19:28.480Z,13.52
2023-08-15T05:19:59.890Z,14.85
2023-08-15T05:20:31.279Z,13.13
2023-08-15T05:21:02.677Z,15.10
2023-08-15T05:21:34.556Z,10.85
2023-08-15T05:22:06.016Z,10.63
2023-08-15T05:22:38.341Z,11.88
2023-08-15T05:23:09.782Z,9.07
2023-08-15T05:23:41.170Z,9.70
2023-08-15T05:24:12.564Z,8.52
2023-08-15T05:24:43.993Z,11.45
2023-08-15T05:25:15.435Z,13.77
2023-08-15T05:25:47.231Z,9.13
2023-08-15T05:26:18.662Z,9.57
2023-08-15T05:26:50.115Z,14.73
2023-08-15T05:27:21.714Z,11.07
2023-08-15T05:27:53.277Z,9.75
2023-08-15T05:28:24.701Z,8.43
2023-08-15T05:28:56.096Z,10.30
2023-08-15T05:29:27.593Z,8.23
2023-08-15T05:29:59.159Z,11.50
2023-08-15T05:30:30.522Z,8.77
2023-08-15T05:31:01.971Z,10.32
2023-08-15T05:31:33.429Z,8.07
2023-08-15T05:32:04.902Z,12.60
2023-08-15T05:32:36.334Z,15.85
2023-08-15T05:33:07.755Z,9.63
2023-08-15T05:33:39.256Z,9.68
2023-08-15T05:34:11.536Z,12.23
2023-08-15T05:34:43.063Z,11.15
2023-08-15T05:35:14.457Z,8.70
2023-08-15T05:35:45.863Z,11.47
2023-08-15T05:36:17.290Z,13.35
2023-08-15T05:36:48.678Z,12.40
2023-08-15T05:37:22.547Z,11.40
2023-08-15T05:37:54.384Z,11.32
2023-08-15T05:38:25.804Z,11.60
2023-08-15T05:38:57.290Z,11.18
2023-08-15T05:39:28.699Z,10.10
2023-08-15T05:40:01.945Z,8.07
2023-08-15T05:40:35.687Z,9.80
2023-08-15T05:41:07.102Z,9.00
2023-08-15T05:41:38.477Z,8.55
2023-08-15T05:42:09.944Z,9.70
2023-08-15T05:42:41.381Z,9.75
2023-08-15T05:43:12.763Z,12.33
2023-08-15T05:43:44.145Z,9.48
2023-08-15T05:44:15.557Z,20.25
2023-08-15T05:44:47.412Z,23.73
2023-08-15T05:45:18.889Z,9.95
2023-08-15T05:45:50.249Z,11.43
2023-08-15T05:46:21.664Z,13.00
2023-08-15T05:46:53.130Z,13.38
2023-08-15T05:47:24.581Z,12.57
2023-08-15T05:47:56.135Z,10.35
2023-08-15T05:48:29.769Z,9.55
2023-08-15T05:49:01.166Z,11.13
2023-08-15T05:49:34.455Z,11.65
2023-08-15T05:50:06.001Z,7.88
2023-08-15T05:50:37.425Z,9.23
2023-08-15T05:51:08.815Z,7.70
2023-08-15T05:51:40.250Z,12.15
2023-08-15T05:52:11.684Z,9.30
2023-08-15T05:52:43.120Z,9.15
2023-08-15T05:53:14.568Z,8.30
2023-08-15T05:53:46.001Z,7.32
2023-08-15T05:54:17.415Z,10.02
2023-08-15T05:54:48.799Z,8.07
2023-08-15T05:55:20.190Z,8.82
2023-08-15T05:55:51.605Z,9.37
2023-08-15T05:56:23.071Z,7.50
2023-08-15T05:56:54.586Z,9.30
2023-08-15T05:57:25.986Z,9.63
2023-08-15T05:57:57.763Z,8.40
2023-08-15T05:58:29.361Z,10.45
2023-08-15T05:59:00.754Z,7.63
2023-08-15T05:59:32.147Z,5.32
2023-08-15T06:00:03.983Z,5.95
2023-08-15T06:00:35.461Z,9.10
2023-08-15T06:01:06.886Z,8.50
2023-08-15T06:01:38.290Z,10.48
2023-08-15T06:02:09.736Z,9.30
2023-08-15T06:02:41.188Z,8.52
2023-08-15T06:03:12.703Z,9.65
2023-08-15T06:03:52.555Z,7.53
2023-08-15T06:04:24.960Z,6.53
2023-08-15T06:04:56.405Z,9.27
2023-08-15T06:05:30.458Z,11.18
2023-08-15T06:06:01.861Z,7.13
2023-08-15T06:06:33.268Z,6.65
2023-08-15T06:07:04.735Z,10.43
2023-08-15T06:07:36.374Z,9.70
2023-08-15T06:08:07.788Z,6.80
2023-08-15T06:08:39.212Z,9.32
2023-08-15T06:09:10.608Z,6.70
2023-08-15T06:09:42.060Z,7.90
2023-08-15T06:10:13.436Z,8.48
2023-08-15T06:10:44.855Z,7.95
2023-08-15T06:11:16.260Z,7.38
2023-08-15T06:11:47.693Z,7.13
2023-08-15T06:12:19.168Z,7.25
2023-08-15T06:12:50.530Z,8.82
2023-08-15T06:13:22.006Z,9.65
2023-08-15T06:13:53.442Z,9.32
2023-08-15T06:14:24.946Z,6.78
2023-08-15T06:14:56.340Z,8.98
2023-08-15T06:15:27.758Z,9.65
2023-08-15T06:15:59.110Z,7.00
2023-08-15T06:16:30.523Z,8.20
2023-08-15T06:17:01.973Z,7.00
2023-08-15T06:17:33.442Z,6.03
2023-08-15T06:18:05.003Z,8.77
2023-08-15T06:18:36.420Z,8.52
2023-08-15T06:19:07.850Z,6.00
2023-08-15T06:19:39.442Z,8.20
2023-08-15T06:20:11.155Z,12.18
2023-08-15T06:20:42.569Z,8.65
2023-08-15T06:21:14.046Z,11.15
2023-08-15T06:21:45.441Z,17.25
2023-08-15T06:22:16.845Z,11.68
2023-08-15T06:22:48.276Z,8.77
2023-08-15T06:23:19.764Z,9.27
2023-08-15T06:23:51.168Z,10.93
2023-08-15T06:24:22.667Z,11.20
2023-08-15T06:24:54.618Z,11.05
2023-08-15T06:25:26.072Z,9.60
2023-08-15T06:25:57.475Z,12.85
2023-08-15T06:26:28.879Z,10.13
2023-08-15T06:27:00.296Z,10.40
2023-08-15T06:27:31.828Z,7.00
2023-08-15T06:28:03.282Z,17.90
2023-08-15T06:28:34.744Z,13.60
2023-08-15T06:29:06.751Z,7.22
2023-08-15T06:29:38.174Z,11.93
2023-08-15T06:30:09.908Z,10.80
2023-08-15T06:30:41.858Z,11.45
2023-08-15T06:31:13.406Z,9.32
2023-08-15T06:31:44.840Z,9.38
2023-08-15T06:32:29.013Z,9.43
2023-08-15T06:33:00.574Z,8.70
2023-08-15T06:33:32.019Z,10.20
2023-08-15T06:34:03.819Z,8.60
2023-08-15T06:34:36.342Z,9.25
2023-08-15T06:35:07.994Z,11.52
2023-08-15T06:35:39.407Z,8.73
2023-08-15T06:36:10.831Z,9.10
2023-08-15T06:36:44.179Z,13.10
2023-08-15T06:37:15.575Z,10.80
2023-08-15T06:37:46.957Z,10.82
2023-08-15T06:38:18.407Z,10.30
2023-08-15T06:38:49.804Z,12.55
2023-08-15T06:39:21.244Z,7.75
2023-08-15T06:39:52.743Z,10.60
2023-08-15T06:40:24.180Z,12.02
2023-08-15T06:40:55.566Z,10.82
2023-08-15T06:41:26.988Z,9.35
2023-08-15T06:41:58.385Z,9.52
2023-08-15T06:42:29.889Z,9.55
2023-08-15T06:43:01.318Z,10.00
2023-08-15T06:43:32.726Z,10.63
2023-08-15T06:44:04.432Z,7.85
2023-08-15T06:44:35.818Z,10.73
2023-08-15T06:45:10.685Z,9.90
2023-08-15T06:45:42.124Z,10.80
2023-08-15T06:46:13.871Z,9.75
2023-08-15T06:46:45.314Z,8.35
2023-08-15T06:47:16.819Z,10.88
2023-08-15T06:47:48.291Z,9.38
2023-08-15T06:48:19.722Z,13.38
2023-08-15T06:48:51.100Z,12.70
2023-08-15T06:49:22.538Z,11.90
2023-08-15T06:49:53.941Z,11.00
2023-08-15T06:50:25.369Z,8.98
2023-08-15T06:50:56.772Z,8.05
2023-08-15T06:51:28.154Z,12.55
2023-08-15T06:51:59.555Z,12.23
2023-08-15T06:52:30.909Z,7.70
2023-08-15T06:53:02.355Z,8.73
2023-08-15T06:53:34.045Z,7.78
2023-08-15T06:54:05.480Z,8.48
2023-08-15T06:54:36.898Z,10.48
2023-08-15T06:55:08.363Z,11.73
2023-08-15T06:55:39.804Z,12.07
2023-08-15T06:56:11.344Z,9.73
2023-08-15T06:56:42.765Z,7.32
2023-08-15T06:57:14.216Z,9.55
2023-08-15T06:57:45.622Z,15.32
2023-08-15T06:58:17.328Z,9.57
2023-08-15T06:58:48.765Z,8.63
2023-08-15T06:59:20.256Z,10.32
2023-08-15T06:59:51.812Z,7.97
2023-08-15T07:00:23.464Z,9.85
2023-08-15T07:00:55.401Z,8.38